sensor_id;sensor_type;location;lat;lon;timestamp;pressure;altitude;pressure_sealevel;temperature;humidity
23433;BME280;41331;45.412;10.992;2022-10-31T00:01:24;101535.63;;;15.27;94.30
23433;BME280;41331;45.412;10.992;2022-10-31T00:03:52;101527.66;;;15.34;93.18
23433;BME280;41331;45.412;10.992;2022-10-31T00:06:21;101539.03;;;15.45;92.97
23433;BME280;41331;45.412;10.992;2022-10-31T00:09:00;101539.03;;;15.45;92.33
23433;BME280;41331;45.412;10.992;2022-10-31T00:11:27;101533.34;;;15.50;91.59
23433;BME280;41331;45.412;10.992;2022-10-31T00:13:56;101540.78;;;15.49;92.08
23433;BME280;41331;45.412;10.992;2022-10-31T00:16:25;101542.13;;;15.43;92.09
23433;BME280;41331;45.412;10.992;2022-10-31T00:18:55;101534.94;;;15.30;93.26
23433;BME280;41331;45.412;10.992;2022-10-31T00:21:23;101539.38;;;15.22;94.10
23433;BME280;41331;45.412;10.992;2022-10-31T00:23:51;101535.47;;;15.23;93.96
23433;BME280;41331;45.412;10.992;2022-10-31T00:26:19;101539.16;;;15.27;93.57
23433;BME280;41331;45.412;10.992;2022-10-31T00:28:47;101533.06;;;15.22;94.06
23433;BME280;41331;45.412;10.992;2022-10-31T00:31:14;101531.97;;;15.14;93.89
23433;BME280;41331;45.412;10.992;2022-10-31T00:33:42;101528.09;;;15.15;93.93
23433;BME280;41331;45.412;10.992;2022-10-31T00:36:16;101530.53;;;15.17;94.12
23433;BME280;41331;45.412;10.992;2022-10-31T00:38:45;101528.59;;;15.17;93.61
23433;BME280;41331;45.412;10.992;2022-10-31T00:41:14;101528.06;;;15.24;93.09
23433;BME280;41331;45.412;10.992;2022-10-31T00:43:43;101528.50;;;15.26;92.79
23433;BME280;41331;45.412;10.992;2022-10-31T00:46:11;101530.44;;;15.25;92.54
23433;BME280;41331;45.412;10.992;2022-10-31T00:48:39;101530.13;;;15.27;92.44
23433;BME280;41331;45.412;10.992;2022-10-31T00:51:07;101528.50;;;15.26;92.60
23433;BME280;41331;45.412;10.992;2022-10-31T00:53:35;101532.38;;;15.25;92.38
23433;BME280;41331;45.412;10.992;2022-10-31T00:56:03;101532.34;;;15.34;92.26
23433;BME280;41331;45.412;10.992;2022-10-31T00:58:31;101533.47;;;15.33;92.12
23433;BME280;41331;45.412;10.992;2022-10-31T01:00:58;101528.94;;;15.37;91.91
23433;BME280;41331;45.412;10.992;2022-10-31T01:03:29;101534.34;;;15.45;91.71
23433;BME280;41331;45.412;10.992;2022-10-31T01:06:03;101523.38;;;15.45;91.47
23433;BME280;41331;45.412;10.992;2022-10-31T01:08:36;101518.78;;;15.37;92.12
23433;BME280;41331;45.412;10.992;2022-10-31T01:13:35;101519.63;;;15.29;92.76
23433;BME280;41331;45.412;10.992;2022-10-31T01:16:05;101527.44;;;15.18;93.40
23433;BME280;41331;45.412;10.992;2022-10-31T01:18:34;101530.03;;;15.15;94.26
23433;BME280;41331;45.412;10.992;2022-10-31T01:21:05;101525.09;;;15.08;94.75
23433;BME280;41331;45.412;10.992;2022-10-31T01:23:33;101516.72;;;15.05;95.15
23433;BME280;41331;45.412;10.992;2022-10-31T01:26:04;101513.97;;;15.05;95.21
23433;BME280;41331;45.412;10.992;2022-10-31T01:28:33;101512.84;;;15.06;95.05
23433;BME280;41331;45.412;10.992;2022-10-31T01:31:07;101515.91;;;15.04;95.21
23433;BME280;41331;45.412;10.992;2022-10-31T01:33:36;101509.03;;;14.98;95.02
23433;BME280;41331;45.412;10.992;2022-10-31T01:36:23;101506.00;;;14.91;95.32
23433;BME280;41331;45.412;10.992;2022-10-31T01:38:52;101517.34;;;14.81;95.49
23433;BME280;41331;45.412;10.992;2022-10-31T01:41:26;101499.47;;;14.74;96.13
23433;BME280;41331;45.412;10.992;2022-10-31T01:43:57;101508.91;;;14.86;95.60
23433;BME280;41331;45.412;10.992;2022-10-31T01:46:34;101499.28;;;14.80;95.69
23433;BME280;41331;45.412;10.992;2022-10-31T01:49:05;101498.63;;;14.83;95.85
23433;BME280;41331;45.412;10.992;2022-10-31T01:51:39;101504.59;;;14.85;95.74
23433;BME280;41331;45.412;10.992;2022-10-31T01:54:11;101501.53;;;14.86;95.58
23433;BME280;41331;45.412;10.992;2022-10-31T01:56:42;101489.31;;;14.75;96.09
23433;BME280;41331;45.412;10.992;2022-10-31T01:59:16;101494.75;;;14.84;95.95
23433;BME280;41331;45.412;10.992;2022-10-31T02:01:46;101502.44;;;14.90;95.19
23433;BME280;41331;45.412;10.992;2022-10-31T02:04:15;101498.44;;;14.88;94.85
23433;BME280;41331;45.412;10.992;2022-10-31T02:06:51;101502.19;;;14.83;95.23
23433;BME280;41331;45.412;10.992;2022-10-31T02:09:22;101489.81;;;14.77;95.84
23433;BME280;41331;45.412;10.992;2022-10-31T02:11:56;101487.91;;;14.69;96.44
23433;BME280;41331;45.412;10.992;2022-10-31T02:14:26;101479.22;;;14.67;96.50
23433;BME280;41331;45.412;10.992;2022-10-31T02:16:56;101476.75;;;14.74;96.15
23433;BME280;41331;45.412;10.992;2022-10-31T02:19:46;101479.66;;;14.77;95.79
23433;BME280;41331;45.412;10.992;2022-10-31T02:36:34;101473.91;;;14.23;99.40
23433;BME280;41331;45.412;10.992;2022-10-31T02:42:09;101483.44;;;14.17;99.79
23433;BME280;41331;45.412;10.992;2022-10-31T02:44:52;101484.56;;;14.16;100.00
23433;BME280;41331;45.412;10.992;2022-10-31T02:47:27;101490.50;;;14.18;100.00
23433;BME280;41331;45.412;10.992;2022-10-31T02:50:13;101485.22;;;14.13;100.00
23433;BME280;41331;45.412;10.992;2022-10-31T02:52:41;101486.50;;;14.07;100.00
23433;BME280;41331;45.412;10.992;2022-10-31T02:57:40;101477.22;;;13.91;100.00
23433;BME280;41331;45.412;10.992;2022-10-31T03:00:09;101473.81;;;13.94;100.00
23433;BME280;41331;45.412;10.992;2022-10-31T03:05:44;101485.75;;;13.89;100.00
23433;BME280;41331;45.412;10.992;2022-10-31T03:08:29;101480.09;;;13.94;100.00
23433;BME280;41331;45.412;10.992;2022-10-31T03:11:03;101477.41;;;13.86;100.00
23433;BME280;41331;45.412;10.992;2022-10-31T03:19:26;101481.41;;;13.80;100.00
23433;BME280;41331;45.412;10.992;2022-10-31T03:22:00;101480.94;;;13.86;100.00
23433;BME280;41331;45.412;10.992;2022-10-31T03:24:32;101482.38;;;13.84;100.00
23433;BME280;41331;45.412;10.992;2022-10-31T03:27:03;101489.31;;;13.81;100.00
23433;BME280;41331;45.412;10.992;2022-10-31T03:29:36;101493.16;;;13.80;100.00
23433;BME280;41331;45.412;10.992;2022-10-31T03:32:12;101487.22;;;13.69;100.00
23433;BME280;41331;45.412;10.992;2022-10-31T03:34:41;101489.97;;;13.69;100.00
23433;BME280;41331;45.412;10.992;2022-10-31T03:37:11;101493.81;;;13.68;100.00
23433;BME280;41331;45.412;10.992;2022-10-31T03:39:43;101488.50;;;13.55;100.00
23433;BME280;41331;45.412;10.992;2022-10-31T03:42:15;101492.06;;;13.55;100.00
23433;BME280;41331;45.412;10.992;2022-10-31T03:44:48;101496.56;;;13.68;100.00
23433;BME280;41331;45.412;10.992;2022-10-31T03:47:18;101492.38;;;13.71;100.00
23433;BME280;41331;45.412;10.992;2022-10-31T03:49:48;101494.00;;;13.81;100.00
23433;BME280;41331;45.412;10.992;2022-10-31T03:54:59;101501.69;;;13.70;100.00
23433;BME280;41331;45.412;10.992;2022-10-31T03:57:38;101500.75;;;13.66;100.00
23433;BME280;41331;45.412;10.992;2022-10-31T04:00:11;101502.38;;;13.67;100.00
23433;BME280;41331;45.412;10.992;2022-10-31T04:02:58;101498.81;;;13.66;100.00
23433;BME280;41331;45.412;10.992;2022-10-31T04:05:31;101505.72;;;13.72;100.00
23433;BME280;41331;45.412;10.992;2022-10-31T04:08:02;101508.00;;;13.70;100.00
23433;BME280;41331;45.412;10.992;2022-10-31T04:10:32;101497.06;;;13.62;100.00
23433;BME280;41331;45.412;10.992;2022-10-31T04:13:07;101498.81;;;13.58;100.00
23433;BME280;41331;45.412;10.992;2022-10-31T04:15:44;101497.22;;;13.57;100.00
23433;BME280;41331;45.412;10.992;2022-10-31T04:18:13;101506.84;;;13.54;100.00
23433;BME280;41331;45.412;10.992;2022-10-31T04:20:41;101502.81;;;13.60;100.00
23433;BME280;41331;45.412;10.992;2022-10-31T04:23:20;101510.06;;;13.73;100.00
23433;BME280;41331;45.412;10.992;2022-10-31T04:25:50;101504.44;;;13.70;100.00
23433;BME280;41331;45.412;10.992;2022-10-31T04:28:18;101506.53;;;13.64;100.00
23433;BME280;41331;45.412;10.992;2022-10-31T04:30:51;101506.88;;;13.63;100.00
23433;BME280;41331;45.412;10.992;2022-10-31T04:33:19;101504.13;;;13.63;100.00
23433;BME280;41331;45.412;10.992;2022-10-31T04:35:47;101508.13;;;13.65;100.00
23433;BME280;41331;45.412;10.992;2022-10-31T04:38:15;101499.78;;;13.53;100.00
23433;BME280;41331;45.412;10.992;2022-10-31T04:40:44;101499.78;;;13.53;100.00
23433;BME280;41331;45.412;10.992;2022-10-31T04:43:21;101507.66;;;13.55;100.00
23433;BME280;41331;45.412;10.992;2022-10-31T04:45:51;101503.66;;;13.52;100.00
23433;BME280;41331;45.412;10.992;2022-10-31T04:48:18;101510.41;;;13.46;100.00
23433;BME280;41331;45.412;10.992;2022-10-31T04:50:47;101510.09;;;13.47;100.00
23433;BME280;41331;45.412;10.992;2022-10-31T04:53:14;101503.66;;;13.43;100.00
23433;BME280;41331;45.412;10.992;2022-10-31T04:56:07;101505.25;;;13.53;100.00
23433;BME280;41331;45.412;10.992;2022-10-31T04:58:40;101504.78;;;13.51;100.00
23433;BME280;41331;45.412;10.992;2022-10-31T05:01:09;101507.81;;;13.50;100.00
23433;BME280;41331;45.412;10.992;2022-10-31T05:03:37;101514.25;;;13.54;100.00
23433;BME280;41331;45.412;10.992;2022-10-31T05:06:07;101513.63;;;13.57;100.00
23433;BME280;41331;45.412;10.992;2022-10-31T05:08:35;101500.91;;;13.52;100.00
23433;BME280;41331;45.412;10.992;2022-10-31T05:11:06;101503.16;;;13.50;100.00
23433;BME280;41331;45.412;10.992;2022-10-31T05:13:33;101513.47;;;13.36;100.00
23433;BME280;41331;45.412;10.992;2022-10-31T05:16:13;101509.75;;;13.23;100.00
23433;BME280;41331;45.412;10.992;2022-10-31T05:18:59;101506.00;;;13.19;100.00
23433;BME280;41331;45.412;10.992;2022-10-31T05:21:45;101510.56;;;13.32;100.00
23433;BME280;41331;45.412;10.992;2022-10-31T05:24:13;101507.19;;;13.27;100.00
23433;BME280;41331;45.412;10.992;2022-10-31T05:26:46;101508.78;;;13.28;100.00
23433;BME280;41331;45.412;10.992;2022-10-31T05:29:13;101512.31;;;13.28;100.00
23433;BME280;41331;45.412;10.992;2022-10-31T05:31:41;101513.63;;;13.22;100.00
23433;BME280;41331;45.412;10.992;2022-10-31T05:34:18;101510.03;;;13.13;100.00
23433;BME280;41331;45.412;10.992;2022-10-31T05:37:24;101515.03;;;13.11;100.00
23433;BME280;41331;45.412;10.992;2022-10-31T05:39:52;101511.75;;;12.91;100.00
23433;BME280;41331;45.412;10.992;2022-10-31T05:42:19;101514.59;;;12.78;100.00
23433;BME280;41331;45.412;10.992;2022-10-31T05:44:47;101523.72;;;12.64;100.00
23433;BME280;41331;45.412;10.992;2022-10-31T05:47:37;101517.16;;;12.65;100.00
23433;BME280;41331;45.412;10.992;2022-10-31T05:50:29;101504.34;;;12.83;100.00
23433;BME280;41331;45.412;10.992;2022-10-31T05:53:07;101502.91;;;12.86;100.00
23433;BME280;41331;45.412;10.992;2022-10-31T05:55:37;101510.63;;;12.92;100.00
23433;BME280;41331;45.412;10.992;2022-10-31T05:58:11;101506.94;;;12.97;100.00
23433;BME280;41331;45.412;10.992;2022-10-31T06:00:41;101499.53;;;12.89;100.00
23433;BME280;41331;45.412;10.992;2022-10-31T06:03:10;101506.28;;;13.00;100.00
23433;BME280;41331;45.412;10.992;2022-10-31T06:05:46;101512.44;;;13.14;100.00
23433;BME280;41331;45.412;10.992;2022-10-31T06:08:21;101516.47;;;13.17;100.00
23433;BME280;41331;45.412;10.992;2022-10-31T06:10:49;101520.53;;;13.28;100.00
23433;BME280;41331;45.412;10.992;2022-10-31T06:13:22;101523.56;;;13.35;100.00
23433;BME280;41331;45.412;10.992;2022-10-31T06:15:57;101514.72;;;13.30;100.00
23433;BME280;41331;45.412;10.992;2022-10-31T06:18:33;101515.06;;;13.28;100.00
23433;BME280;41331;45.412;10.992;2022-10-31T06:21:01;101530.03;;;13.31;100.00
23433;BME280;41331;45.412;10.992;2022-10-31T06:23:28;101533.25;;;13.41;100.00
23433;BME280;41331;45.412;10.992;2022-10-31T06:26:15;101516.50;;;13.60;100.00
23433;BME280;41331;45.412;10.992;2022-10-31T06:28:43;101524.72;;;13.78;100.00
23433;BME280;41331;45.412;10.992;2022-10-31T06:31:26;101526.97;;;13.84;99.80
23433;BME280;41331;45.412;10.992;2022-10-31T06:33:53;101532.47;;;13.76;99.79
23433;BME280;41331;45.412;10.992;2022-10-31T06:36:21;101530.84;;;13.66;100.00
23433;BME280;41331;45.412;10.992;2022-10-31T06:38:48;101536.31;;;13.48;100.00
23433;BME280;41331;45.412;10.992;2022-10-31T06:41:20;101532.78;;;13.57;100.00
23433;BME280;41331;45.412;10.992;2022-10-31T06:43:51;101536.31;;;13.57;100.00
23433;BME280;41331;45.412;10.992;2022-10-31T06:46:37;101542.41;;;13.54;100.00
23433;BME280;41331;45.412;10.992;2022-10-31T06:49:25;101541.78;;;13.57;100.00
23433;BME280;41331;45.412;10.992;2022-10-31T06:51:54;101541.63;;;13.71;100.00
23433;BME280;41331;45.412;10.992;2022-10-31T06:54:21;101540.34;;;13.86;100.00
23433;BME280;41331;45.412;10.992;2022-10-31T06:56:49;101544.50;;;13.92;100.00
23433;BME280;41331;45.412;10.992;2022-10-31T06:59:17;101543.84;;;14.12;99.30
23433;BME280;41331;45.412;10.992;2022-10-31T07:02:10;101563.28;;;14.37;97.36
23433;BME280;41331;45.412;10.992;2022-10-31T07:04:39;101560.88;;;14.18;98.29
23433;BME280;41331;45.412;10.992;2022-10-31T07:07:07;101559.75;;;14.10;98.46
23433;BME280;41331;45.412;10.992;2022-10-31T07:09:37;101564.09;;;14.20;98.44
23433;BME280;41331;45.412;10.992;2022-10-31T07:12:05;101572.91;;;14.43;97.14
23433;BME280;41331;45.412;10.992;2022-10-31T07:14:36;101565.94;;;14.63;95.94
23433;BME280;41331;45.412;10.992;2022-10-31T07:17:05;101571.88;;;14.65;95.73
23433;BME280;41331;45.412;10.992;2022-10-31T07:19:38;101567.72;;;14.67;95.45
23433;BME280;41331;45.412;10.992;2022-10-31T07:22:05;101572.72;;;14.95;92.63
23433;BME280;41331;45.412;10.992;2022-10-31T07:24:34;101576.28;;;14.95;92.01
23433;BME280;41331;45.412;10.992;2022-10-31T07:27:20;101574.84;;;14.89;92.11
23433;BME280;41331;45.412;10.992;2022-10-31T07:29:48;101572.50;;;15.59;88.83
23433;BME280;41331;45.412;10.992;2022-10-31T07:32:16;101577.22;;;16.70;82.46
23433;BME280;41331;45.412;10.992;2022-10-31T07:34:52;101576.81;;;17.05;78.20
23433;BME280;41331;45.412;10.992;2022-10-31T07:37:22;101583.22;;;17.33;74.96
23433;BME280;41331;45.412;10.992;2022-10-31T07:39:51;101579.91;;;17.28;74.61
23433;BME280;41331;45.412;10.992;2022-10-31T07:42:18;101584.50;;;16.87;76.60
23433;BME280;41331;45.412;10.992;2022-10-31T07:44:47;101588.22;;;16.70;78.55
23433;BME280;41331;45.412;10.992;2022-10-31T07:47:54;101588.81;;;16.64;80.15
23433;BME280;41331;45.412;10.992;2022-10-31T07:50:45;101596.75;;;16.77;80.08
23433;BME280;41331;45.412;10.992;2022-10-31T07:53:42;101598.47;;;17.06;78.89
23433;BME280;41331;45.412;10.992;2022-10-31T07:56:22;101604.66;;;17.28;78.22
23433;BME280;41331;45.412;10.992;2022-10-31T07:58:49;101606.84;;;17.22;78.92
23433;BME280;41331;45.412;10.992;2022-10-31T08:01:17;101600.81;;;17.69;77.06
23433;BME280;41331;45.412;10.992;2022-10-31T08:03:56;101598.88;;;18.85;72.84
23433;BME280;41331;45.412;10.992;2022-10-31T08:06:59;101604.91;;;19.93;67.92
23433;BME280;41331;45.412;10.992;2022-10-31T08:09:31;101600.59;;;20.57;65.06
23433;BME280;41331;45.412;10.992;2022-10-31T08:12:03;101602.09;;;21.24;61.42
23433;BME280;41331;45.412;10.992;2022-10-31T08:14:32;101604.25;;;22.28;58.08
23433;BME280;41331;45.412;10.992;2022-10-31T08:17:00;101591.66;;;23.33;54.77
23433;BME280;41331;45.412;10.992;2022-10-31T08:19:36;101591.97;;;23.87;52.79
23433;BME280;41331;45.412;10.992;2022-10-31T08:22:04;101595.66;;;22.84;55.10
23433;BME280;41331;45.412;10.992;2022-10-31T08:24:31;101597.41;;;22.55;56.19
23433;BME280;41331;45.412;10.992;2022-10-31T08:26:59;101588.72;;;22.60;56.41
23433;BME280;41331;45.412;10.992;2022-10-31T08:29:26;101600.03;;;22.07;57.72
23433;BME280;41331;45.412;10.992;2022-10-31T08:31:54;101597.19;;;22.78;55.24
23433;BME280;41331;45.412;10.992;2022-10-31T08:34:44;101598.50;;;23.46;53.31
23433;BME280;41331;45.412;10.992;2022-10-31T08:37:30;101597.13;;;23.85;51.72
23433;BME280;41331;45.412;10.992;2022-10-31T08:39:58;101592.81;;;24.12;51.03
23433;BME280;41331;45.412;10.992;2022-10-31T08:42:25;101606.47;;;24.71;50.18
23433;BME280;41331;45.412;10.992;2022-10-31T08:44:53;101603.66;;;24.99;48.88
23433;BME280;41331;45.412;10.992;2022-10-31T08:47:21;101604.06;;;25.01;47.94
23433;BME280;41331;45.412;10.992;2022-10-31T08:49:49;101614.00;;;25.02;47.99
23433;BME280;41331;45.412;10.992;2022-10-31T08:52:16;101612.03;;;24.78;48.65
23433;BME280;41331;45.412;10.992;2022-10-31T08:54:46;101614.22;;;25.90;45.83
23433;BME280;41331;45.412;10.992;2022-10-31T08:57:46;101612.00;;;26.33;44.82
23433;BME280;41331;45.412;10.992;2022-10-31T09:00:14;101608.25;;;26.62;44.25
23433;BME280;41331;45.412;10.992;2022-10-31T09:02:57;101600.84;;;26.89;43.70
23433;BME280;41331;45.412;10.992;2022-10-31T09:05:25;101609.66;;;26.84;44.24
23433;BME280;41331;45.412;10.992;2022-10-31T09:07:57;101601.16;;;26.98;43.83
23433;BME280;41331;45.412;10.992;2022-10-31T09:10:27;101603.56;;;27.41;43.28
23433;BME280;41331;45.412;10.992;2022-10-31T09:12:57;101601.09;;;27.05;42.93
23433;BME280;41331;45.412;10.992;2022-10-31T09:16:07;101587.66;;;26.93;43.79
23433;BME280;41331;45.412;10.992;2022-10-31T09:18:36;101594.41;;;26.47;44.01
23433;BME280;41331;45.412;10.992;2022-10-31T09:21:03;101590.53;;;25.32;46.84
23433;BME280;41331;45.412;10.992;2022-10-31T09:23:31;101588.81;;;24.02;50.70
23433;BME280;41331;45.412;10.992;2022-10-31T09:26:00;101590.97;;;24.56;50.63
23433;BME280;41331;45.412;10.992;2022-10-31T09:28:30;101589.75;;;24.57;50.30
23433;BME280;41331;45.412;10.992;2022-10-31T09:31:12;101584.09;;;24.14;50.78
23433;BME280;41331;45.412;10.992;2022-10-31T09:34:02;101586.41;;;23.90;51.19
23433;BME280;41331;45.412;10.992;2022-10-31T09:36:39;101586.19;;;23.47;52.49
23433;BME280;41331;45.412;10.992;2022-10-31T09:39:13;101582.50;;;23.25;54.11
23433;BME280;41331;45.412;10.992;2022-10-31T09:44:33;101587.13;;;22.59;56.89
23433;BME280;41331;45.412;10.992;2022-10-31T09:50:21;101584.81;;;22.28;58.12
23433;BME280;41331;45.412;10.992;2022-10-31T09:55:59;101578.56;;;22.01;59.64
23433;BME280;41331;45.412;10.992;2022-10-31T09:58:30;101591.50;;;22.19;58.96
23433;BME280;41331;45.412;10.992;2022-10-31T10:01:05;101584.63;;;21.76;60.79
23433;BME280;41331;45.412;10.992;2022-10-31T10:03:45;101589.44;;;21.53;61.68
23433;BME280;41331;45.412;10.992;2022-10-31T10:06:34;101589.03;;;21.24;62.98
23433;BME280;41331;45.412;10.992;2022-10-31T10:09:26;101587.06;;;21.25;63.62
23433;BME280;41331;45.412;10.992;2022-10-31T10:17:56;101579.97;;;21.27;63.93
23433;BME280;41331;45.412;10.992;2022-10-31T10:20:51;101581.44;;;21.44;63.75
23433;BME280;41331;45.412;10.992;2022-10-31T10:23:35;101574.13;;;21.32;65.64
23433;BME280;41331;45.412;10.992;2022-10-31T10:26:17;101573.34;;;21.62;63.00
23433;BME280;41331;45.412;10.992;2022-10-31T10:28:58;101574.25;;;21.39;62.63
23433;BME280;41331;45.412;10.992;2022-10-31T10:31:35;101575.78;;;21.10;64.21
23433;BME280;41331;45.412;10.992;2022-10-31T10:36:53;101565.78;;;21.29;63.93
23433;BME280;41331;45.412;10.992;2022-10-31T10:39:34;101564.72;;;21.37;64.59
23433;BME280;41331;45.412;10.992;2022-10-31T10:42:09;101558.38;;;21.36;63.42
23433;BME280;41331;45.412;10.992;2022-10-31T10:44:57;101563.44;;;21.31;64.32
23433;BME280;41331;45.412;10.992;2022-10-31T10:47:47;101569.97;;;21.45;64.98
23433;BME280;41331;45.412;10.992;2022-10-31T10:50:20;101564.03;;;21.77;62.82
23433;BME280;41331;45.412;10.992;2022-10-31T10:53:05;101565.09;;;21.65;64.09
23433;BME280;41331;45.412;10.992;2022-10-31T10:55:43;101561.16;;;21.66;64.48
23433;BME280;41331;45.412;10.992;2022-10-31T10:58:12;101557.09;;;21.90;63.26
23433;BME280;41331;45.412;10.992;2022-10-31T11:00:44;101561.41;;;21.58;63.17
23433;BME280;41331;45.412;10.992;2022-10-31T11:03:18;101559.78;;;21.53;63.95
23433;BME280;41331;45.412;10.992;2022-10-31T11:05:53;101564.16;;;21.54;65.06
23433;BME280;41331;45.412;10.992;2022-10-31T11:08:32;101540.69;;;21.78;63.27
23433;BME280;41331;45.412;10.992;2022-10-31T11:13:32;101545.09;;;21.83;62.96
23433;BME280;41331;45.412;10.992;2022-10-31T11:16:08;101534.19;;;21.97;62.51
23433;BME280;41331;45.412;10.992;2022-10-31T11:18:39;101535.16;;;21.78;63.65
23433;BME280;41331;45.412;10.992;2022-10-31T11:21:23;101533.84;;;21.68;63.85
23433;BME280;41331;45.412;10.992;2022-10-31T11:26:39;101523.81;;;21.90;63.92
23433;BME280;41331;45.412;10.992;2022-10-31T11:31:44;101524.38;;;22.07;64.14
23433;BME280;41331;45.412;10.992;2022-10-31T11:34:33;101531.13;;;22.06;63.87
23433;BME280;41331;45.412;10.992;2022-10-31T11:37:28;101530.56;;;22.27;62.76
23433;BME280;41331;45.412;10.992;2022-10-31T11:40:02;101520.78;;;22.40;62.10
23433;BME280;41331;45.412;10.992;2022-10-31T11:42:40;101523.91;;;22.38;62.61
23433;BME280;41331;45.412;10.992;2022-10-31T11:45:27;101521.19;;;22.42;61.88
23433;BME280;41331;45.412;10.992;2022-10-31T11:47:56;101523.22;;;22.48;61.38
23433;BME280;41331;45.412;10.992;2022-10-31T11:50:36;101511.88;;;22.68;60.02
23433;BME280;41331;45.412;10.992;2022-10-31T11:53:16;101514.53;;;22.54;60.16
23433;BME280;41331;45.412;10.992;2022-10-31T11:55:45;101510.22;;;22.56;58.74
23433;BME280;41331;45.412;10.992;2022-10-31T11:58:24;101512.59;;;22.58;58.89
23433;BME280;41331;45.412;10.992;2022-10-31T12:00:55;101502.50;;;22.35;60.07
23433;BME280;41331;45.412;10.992;2022-10-31T12:05:57;101494.19;;;22.35;60.99
23433;BME280;41331;45.412;10.992;2022-10-31T12:08:31;101489.91;;;22.45;61.10
23433;BME280;41331;45.412;10.992;2022-10-31T12:16:46;101483.72;;;22.66;60.54
23433;BME280;41331;45.412;10.992;2022-10-31T12:30:24;101477.44;;;22.76;58.97
23433;BME280;41331;45.412;10.992;2022-10-31T12:38:53;101459.72;;;22.91;57.17
23433;BME280;41331;45.412;10.992;2022-10-31T12:42:03;101458.78;;;22.73;58.42
23433;BME280;41331;45.412;10.992;2022-10-31T12:47:54;101436.19;;;22.71;59.25
23433;BME280;41331;45.412;10.992;2022-10-31T12:58:31;101425.41;;;22.59;59.40
23433;BME280;41331;45.412;10.992;2022-10-31T13:01:16;101426.19;;;22.56;60.02
23433;BME280;41331;45.412;10.992;2022-10-31T13:03:57;101426.19;;;22.56;58.78
23433;BME280;41331;45.412;10.992;2022-10-31T13:06:32;101425.78;;;22.57;59.56
23433;BME280;41331;45.412;10.992;2022-10-31T13:09:05;101429.75;;;22.56;59.67
23433;BME280;41331;45.412;10.992;2022-10-31T13:11:45;101423.81;;;22.54;59.09
23433;BME280;41331;45.412;10.992;2022-10-31T13:14:27;101422.59;;;22.52;59.17
23433;BME280;41331;45.412;10.992;2022-10-31T13:16:59;101423.34;;;22.48;59.34
23433;BME280;41331;45.412;10.992;2022-10-31T13:19:41;101417.41;;;22.46;58.86
23433;BME280;41331;45.412;10.992;2022-10-31T13:25:03;101417.88;;;22.56;58.11
23433;BME280;41331;45.412;10.992;2022-10-31T13:27:48;101421.41;;;22.53;58.20
23433;BME280;41331;45.412;10.992;2022-10-31T13:30:19;101414.63;;;22.46;58.65
23433;BME280;41331;45.412;10.992;2022-10-31T13:35:58;101417.53;;;22.68;57.24
23433;BME280;41331;45.412;10.992;2022-10-31T13:42:01;101413.94;;;22.60;58.03
23433;BME280;41331;45.412;10.992;2022-10-31T13:44:35;101410.63;;;22.44;57.97
23433;BME280;41331;45.412;10.992;2022-10-31T13:47:26;101409.44;;;22.41;59.15
23433;BME280;41331;45.412;10.992;2022-10-31T13:50:31;101405.13;;;22.47;58.68
23433;BME280;41331;45.412;10.992;2022-10-31T13:55:46;101400.25;;;22.30;58.48
23433;BME280;41331;45.412;10.992;2022-10-31T13:58:26;101396.84;;;22.51;58.00
23433;BME280;41331;45.412;10.992;2022-10-31T14:03:39;101400.78;;;22.50;57.44
23433;BME280;41331;45.412;10.992;2022-10-31T14:06:39;101406.63;;;22.34;57.69
23433;BME280;41331;45.412;10.992;2022-10-31T14:11:53;101393.97;;;22.37;58.12
23433;BME280;41331;45.412;10.992;2022-10-31T14:14:32;101398.31;;;22.34;57.45
23433;BME280;41331;45.412;10.992;2022-10-31T14:17:01;101396.34;;;22.35;57.77
23433;BME280;41331;45.412;10.992;2022-10-31T14:19:28;101400.25;;;22.30;58.23
23433;BME280;41331;45.412;10.992;2022-10-31T14:21:59;101401.78;;;22.20;58.40
23433;BME280;41331;45.412;10.992;2022-10-31T14:26:56;101395.22;;;22.46;56.34
23433;BME280;41331;45.412;10.992;2022-10-31T14:29:27;101405.81;;;22.30;57.47
23433;BME280;41331;45.412;10.992;2022-10-31T14:34:28;101392.63;;;22.16;58.18
23433;BME280;41331;45.412;10.992;2022-10-31T14:40:35;101392.34;;;22.32;56.91
23433;BME280;41331;45.412;10.992;2022-10-31T14:51:46;101391.66;;;21.98;57.49
23433;BME280;41331;45.412;10.992;2022-10-31T14:54:30;101388.03;;;21.90;58.41
23433;BME280;41331;45.412;10.992;2022-10-31T14:57:07;101386.81;;;21.88;59.30
23433;BME280;41331;45.412;10.992;2022-10-31T14:59:43;101382.34;;;21.76;60.68
23433;BME280;41331;45.412;10.992;2022-10-31T15:02:21;101378.69;;;21.65;61.58
23433;BME280;41331;45.412;10.992;2022-10-31T15:04:51;101381.31;;;21.51;62.23
23433;BME280;41331;45.412;10.992;2022-10-31T15:07:26;101384.00;;;21.43;61.60
23433;BME280;41331;45.412;10.992;2022-10-31T15:10:06;101378.41;;;21.36;62.52
23433;BME280;41331;45.412;10.992;2022-10-31T15:12:36;101381.50;;;21.31;63.08
23433;BME280;41331;45.412;10.992;2022-10-31T15:17:43;101387.28;;;21.19;62.77
23433;BME280;41331;45.412;10.992;2022-10-31T15:20:18;101381.25;;;21.13;62.13
23433;BME280;41331;45.412;10.992;2022-10-31T15:22:46;101385.22;;;21.12;62.22
23433;BME280;41331;45.412;10.992;2022-10-31T15:25:20;101384.00;;;21.10;62.69
23433;BME280;41331;45.412;10.992;2022-10-31T15:27:49;101378.81;;;21.05;63.14